createdAt,value
2022-09-16T00:00:43.728Z,338.63
2022-09-16T00:03:11.217Z,324.90
2022-09-16T00:05:48.833Z,329.20
2022-09-16T00:08:16.521Z,349.10
2022-09-16T00:10:43.921Z,339.15
2022-09-16T00:13:12.271Z,338.30
2022-09-16T00:15:45.635Z,364.02
2022-09-16T00:18:12.362Z,378.38
2022-09-16T00:20:45.043Z,395.00
2022-09-16T00:23:11.716Z,401.00
2022-09-16T00:25:38.333Z,427.40
2022-09-16T00:28:04.963Z,400.05
2022-09-16T00:30:31.557Z,411.63
2022-09-16T00:32:58.266Z,392.30
2022-09-16T00:35:24.842Z,395.83
2022-09-16T00:37:51.472Z,368.80
2022-09-16T00:40:18.189Z,370.42
2022-09-16T00:42:44.824Z,344.35
2022-09-16T00:45:17.968Z,324.27
2022-09-16T00:47:51.378Z,334.70
2022-09-16T00:50:30.205Z,331.90
2022-09-16T00:52:59.552Z,346.47
2022-09-16T00:55:37.150Z,375.50
2022-09-16T00:58:24.754Z,364.48
2022-09-16T01:00:54.111Z,364.50
2022-09-16T01:03:21.107Z,349.67
2022-09-16T01:05:49.041Z,359.85
2022-09-16T01:08:15.683Z,346.88
2022-09-16T01:10:43.005Z,358.38
2022-09-16T01:13:12.837Z,394.77
2022-09-16T01:16:00.541Z,378.42
2022-09-16T01:18:48.677Z,365.73
2022-09-16T01:21:47.483Z,359.10
2022-09-16T01:24:34.504Z,375.45
2022-09-16T01:27:46.109Z,384.35
2022-09-16T01:30:20.054Z,394.83
2022-09-16T01:33:01.366Z,360.60
2022-09-16T01:35:52.743Z,362.80
2022-09-16T01:38:37.878Z,341.92
2022-09-16T01:41:19.838Z,339.40
2022-09-16T01:44:12.543Z,354.92
2022-09-16T01:46:47.779Z,352.02
2022-09-16T01:49:20.238Z,355.37
2022-09-16T01:51:59.185Z,354.65
2022-09-16T01:55:06.862Z,356.33
2022-09-16T01:58:11.301Z,348.27
2022-09-16T02:00:42.745Z,372.65
2022-09-16T02:03:20.206Z,368.40
2022-09-16T02:05:53.829Z,353.20
2022-09-16T02:08:38.820Z,652.27
2022-09-16T02:11:09.806Z,586.97
2022-09-16T02:13:43.966Z,539.30
2022-09-16T02:16:26.890Z,480.75
2022-09-16T02:18:57.968Z,521.08
2022-09-16T02:21:27.623Z,525.22
2022-09-16T02:23:59.995Z,529.30
2022-09-16T02:26:36.946Z,535.90
2022-09-16T02:29:10.790Z,572.25
2022-09-16T02:31:39.118Z,847.10
2022-09-16T02:34:14.919Z,851.07
2022-09-16T02:36:45.657Z,857.05
2022-09-16T02:39:18.269Z,855.40
2022-09-16T02:41:47.117Z,866.57
2022-09-16T02:44:14.027Z,880.53
2022-09-16T02:47:06.896Z,868.67
2022-09-16T02:50:38.098Z,874.90
2022-09-16T02:53:24.778Z,945.67
2022-09-16T02:55:58.890Z,969.20
2022-09-16T02:58:25.549Z,948.85
2022-09-16T03:00:55.249Z,935.95
2022-09-16T03:03:22.409Z,947.75
2022-09-16T03:06:17.043Z,928.10
2022-09-16T03:08:45.241Z,885.03
2022-09-16T03:11:40.687Z,882.25
2022-09-16T03:14:30.558Z,872.10
2022-09-16T03:17:33.649Z,861.13
2022-09-16T03:20:18.837Z,828.53
2022-09-16T03:22:54.547Z,817.38
2022-09-16T03:25:27.113Z,820.78
2022-09-16T03:28:12.366Z,814.33
2022-09-16T03:30:50.261Z,806.72
2022-09-16T03:33:27.097Z,816.15
2022-09-16T03:35:59.895Z,795.30
2022-09-16T03:38:28.660Z,791.47
2022-09-16T03:40:55.607Z,779.28
2022-09-16T03:43:22.190Z,769.03
2022-09-16T03:45:48.992Z,756.60
2022-09-16T03:48:15.650Z,744.85
2022-09-16T03:50:42.316Z,728.33
2022-09-16T03:53:08.974Z,733.92
2022-09-16T03:55:35.608Z,730.60
2022-09-16T03:58:02.269Z,701.20
2022-09-16T04:00:29.204Z,716.95
2022-09-16T04:02:56.299Z,679.33
2022-09-16T04:05:23.006Z,658.07
2022-09-16T04:07:50.075Z,633.33
2022-09-16T04:10:17.016Z,645.30
2022-09-16T04:12:43.761Z,654.43
2022-09-16T04:15:10.771Z,655.70
2022-09-16T04:17:37.647Z,670.77
2022-09-16T04:20:05.922Z,682.30
2022-09-16T04:22:32.626Z,669.40
2022-09-16T04:24:59.272Z,693.00
2022-09-16T04:27:25.883Z,683.05
2022-09-16T04:29:52.522Z,684.60
2022-09-16T04:32:19.188Z,689.20
2022-09-16T04:34:45.929Z,687.78
2022-09-16T04:37:12.511Z,673.45
2022-09-16T04:39:39.212Z,690.58
2022-09-16T04:42:06.998Z,678.60
2022-09-16T04:44:35.095Z,697.27
2022-09-16T04:47:01.681Z,714.70
2022-09-16T04:49:28.214Z,702.03
2022-09-16T04:51:54.903Z,707.75
2022-09-16T04:54:21.566Z,701.45
2022-09-16T04:56:48.235Z,712.38
2022-09-16T04:59:15.192Z,693.55
2022-09-16T05:01:42.083Z,720.03
2022-09-16T05:04:12.934Z,711.85
2022-09-16T05:06:41.566Z,686.90
2022-09-16T05:09:10.460Z,663.28
2022-09-16T05:11:39.015Z,672.58
2022-09-16T05:14:17.237Z,658.25
2022-09-16T05:16:45.441Z,653.60
2022-09-16T05:19:14.439Z,630.25
2022-09-16T05:21:42.066Z,654.22
2022-09-16T05:24:11.526Z,651.85
2022-09-16T05:26:40.443Z,669.10
2022-09-16T05:29:11.149Z,658.30
2022-09-16T05:31:40.740Z,651.53
2022-09-16T05:34:11.356Z,670.95
2022-09-16T05:36:40.934Z,666.97
2022-09-16T05:41:48.998Z,660.08
2022-09-16T05:44:16.050Z,627.08
2022-09-16T05:46:43.921Z,646.20
2022-09-16T05:49:11.537Z,640.85
2022-09-16T05:51:39.451Z,640.53
2022-09-16T05:54:06.265Z,657.67
2022-09-16T05:56:33.308Z,664.35
2022-09-16T05:59:00.988Z,665.35
2022-09-16T06:01:33.093Z,639.03
2022-09-16T06:04:04.982Z,636.37
2022-09-16T06:06:36.901Z,647.57
2022-09-16T06:09:10.998Z,663.97
2022-09-16T06:11:41.661Z,632.40
2022-09-16T06:14:09.044Z,610.95
2022-09-16T06:16:42.749Z,630.17
2022-09-16T06:19:15.234Z,609.75
2022-09-16T06:21:45.562Z,553.55
2022-09-16T06:24:14.293Z,553.55
2022-09-16T06:26:45.642Z,588.17
2022-09-16T06:29:13.562Z,569.83
2022-09-16T06:31:40.722Z,569.67
2022-09-16T06:34:08.623Z,593.45
2022-09-16T06:36:42.721Z,590.35
2022-09-16T06:39:13.410Z,601.50
2022-09-16T06:41:40.096Z,613.42
2022-09-16T06:44:06.683Z,587.20
2022-09-16T06:46:33.455Z,609.13
2022-09-16T06:49:04.571Z,615.58
2022-09-16T06:51:33.108Z,592.63
2022-09-16T06:54:02.238Z,595.87
2022-09-16T06:56:30.284Z,595.15
2022-09-16T06:58:57.399Z,607.53
2022-09-16T07:01:29.740Z,601.97
2022-09-16T07:03:58.429Z,609.63
2022-09-16T07:06:45.233Z,600.40
2022-09-16T07:09:14.767Z,716.63
2022-09-16T07:11:41.507Z,693.90
2022-09-16T07:14:09.564Z,760.42
2022-09-16T07:16:36.141Z,774.00
2022-09-16T07:19:02.889Z,763.05
2022-09-16T07:21:30.737Z,782.65
2022-09-16T07:24:02.765Z,762.50
2022-09-16T07:26:35.229Z,751.92
2022-09-16T07:29:04.317Z,733.70
2022-09-16T07:31:33.864Z,743.47
2022-09-16T07:34:04.309Z,711.10
2022-09-16T07:36:38.792Z,714.92
2022-09-16T07:39:06.333Z,687.60
2022-09-16T07:41:38.460Z,686.28
2022-09-16T07:44:06.509Z,698.75
2022-09-16T07:46:35.486Z,698.33
2022-09-16T07:49:04.244Z,681.28
2022-09-16T07:51:31.493Z,693.75
2022-09-16T07:54:03.534Z,683.03
2022-09-16T07:56:35.260Z,678.60
2022-09-16T07:59:03.850Z,667.20
2022-09-16T08:01:33.417Z,645.72
2022-09-16T08:04:01.018Z,673.80
2022-09-16T08:06:30.623Z,641.65
2022-09-16T08:09:09.815Z,642.45
2022-09-16T08:11:49.755Z,656.88
2022-09-16T08:14:16.590Z,652.47
2022-09-16T08:16:46.639Z,674.30
2022-09-16T08:19:13.734Z,678.83
2022-09-16T08:21:40.357Z,671.20
2022-09-16T08:24:07.084Z,691.37
2022-09-16T08:26:33.684Z,685.08
2022-09-16T08:29:09.337Z,662.13
2022-09-16T08:31:37.533Z,655.83
2022-09-16T08:34:05.052Z,651.67
2022-09-16T08:36:37.539Z,663.22
2022-09-16T08:39:04.506Z,596.77
2022-09-16T08:41:37.045Z,599.13
2022-09-16T08:44:19.222Z,598.08
2022-09-16T08:46:56.035Z,587.65
2022-09-16T08:49:40.078Z,565.50
2022-09-16T08:52:14.465Z,610.43
2022-09-16T08:54:47.426Z,606.30
2022-09-16T08:57:22.394Z,584.05
2022-09-16T08:59:54.736Z,578.80
2022-09-16T09:02:38.804Z,582.05
2022-09-16T09:05:42.747Z,578.70
2022-09-16T09:08:30.715Z,593.90
2022-09-16T09:11:15.583Z,588.38
2022-09-16T09:14:12.589Z,595.38
2022-09-16T09:16:45.656Z,551.13
2022-09-16T09:19:56.062Z,569.60
2022-09-16T09:22:33.152Z,539.22
2022-09-16T09:25:39.623Z,558.08
2022-09-16T09:28:56.890Z,551.53
2022-09-16T09:31:35.033Z,535.67
2022-09-16T09:34:43.391Z,571.05
2022-09-16T09:37:27.152Z,578.28
2022-09-16T09:40:02.070Z,595.45
2022-09-16T09:42:43.672Z,735.60
2022-09-16T09:45:27.961Z,806.67
2022-09-16T09:48:03.605Z,809.22
2022-09-16T09:50:40.188Z,907.83
2022-09-16T09:53:07.084Z,863.38
2022-09-16T09:55:35.056Z,855.40
2022-09-16T09:58:24.253Z,827.53
2022-09-16T10:00:53.456Z,790.55
2022-09-16T10:03:20.359Z,775.17
2022-09-16T10:05:47.922Z,746.17
2022-09-16T10:08:17.680Z,689.90
2022-09-16T10:10:59.923Z,678.03
2022-09-16T10:13:29.850Z,618.83
2022-09-16T10:16:14.641Z,589.35
2022-09-16T10:18:42.410Z,599.47
2022-09-16T10:21:15.385Z,588.27
2022-09-16T10:23:53.011Z,638.22
2022-09-16T10:26:21.498Z,609.07
2022-09-16T10:29:16.019Z,647.40
2022-09-16T10:31:43.609Z,626.25
2022-09-16T10:34:36.103Z,587.63
2022-09-16T10:37:13.149Z,591.47
2022-09-16T10:39:43.359Z,615.63
2022-09-16T10:42:20.130Z,627.50
2022-09-16T10:44:48.334Z,617.50
2022-09-16T10:47:32.607Z,611.13
2022-09-16T10:50:05.722Z,601.92
2022-09-16T10:52:42.445Z,578.70
2022-09-16T10:55:35.353Z,617.67
2022-09-16T10:58:18.006Z,598.28
2022-09-16T11:01:14.249Z,545.65
2022-09-16T11:04:05.964Z,566.55
2022-09-16T11:07:04.564Z,587.13
2022-09-16T11:09:52.886Z,574.67
2022-09-16T11:12:44.364Z,578.70
2022-09-16T11:15:29.768Z,554.80
2022-09-16T11:18:14.820Z,515.03
2022-09-16T11:21:00.241Z,533.03
2022-09-16T11:24:02.758Z,484.20
2022-09-16T11:26:36.900Z,468.02
2022-09-16T11:29:18.524Z,479.85
2022-09-16T11:32:24.376Z,457.00
2022-09-16T11:35:05.073Z,443.27
2022-09-16T11:37:45.309Z,441.17
2022-09-16T11:40:47.832Z,439.90
2022-09-16T11:43:46.429Z,426.10
2022-09-16T11:46:43.723Z,453.50
2022-09-16T11:49:22.572Z,404.27
2022-09-16T11:52:09.407Z,375.83
2022-09-16T11:54:53.944Z,371.52
2022-09-16T11:57:31.124Z,378.48
2022-09-16T12:00:14.214Z,369.52
2022-09-16T12:02:58.451Z,358.70
2022-09-16T12:05:36.995Z,345.17
2022-09-16T12:08:12.965Z,341.95
2022-09-16T12:10:45.676Z,319.70
2022-09-16T12:13:21.361Z,325.92
2022-09-16T12:15:57.336Z,331.05
2022-09-16T12:18:43.087Z,309.45
2022-09-16T12:21:32.813Z,364.42
2022-09-16T12:24:11.881Z,328.65
2022-09-16T12:26:49.056Z,307.25
2022-09-16T12:29:20.197Z,335.05
2022-09-16T12:32:01.538Z,362.47
2022-09-16T12:34:37.654Z,333.25
2022-09-16T12:37:20.479Z,322.20
2022-09-16T12:39:50.067Z,315.70
2022-09-16T12:42:46.694Z,307.88
2022-09-16T12:45:30.433Z,327.55
2022-09-16T12:48:21.445Z,344.00
2022-09-16T12:54:51.154Z,338.38
2022-09-16T12:57:36.251Z,329.70
2022-09-16T13:00:12.241Z,303.70
2022-09-16T13:02:53.117Z,297.52
2022-09-16T13:05:40.201Z,286.52
2022-09-16T13:08:23.330Z,296.58
2022-09-16T13:11:28.424Z,268.02
2022-09-16T13:13:51.329Z,291.58
2022-09-16T13:16:38.433Z,278.95
2022-09-16T13:19:30.489Z,282.10
2022-09-16T13:22:17.471Z,252.45
2022-09-16T13:24:51.781Z,260.95
2022-09-16T13:27:34.593Z,234.33
2022-09-16T13:30:15.159Z,238.53
2022-09-16T13:32:58.508Z,201.82
2022-09-16T13:35:31.269Z,203.80
2022-09-16T13:38:01.834Z,189.37
2022-09-16T13:40:34.150Z,191.05
2022-09-16T13:43:13.413Z,244.05
2022-09-16T13:46:05.798Z,264.45
2022-09-16T13:48:56.448Z,339.60
2022-09-16T13:51:23.672Z,754.10
2022-09-16T13:53:52.404Z,820.27
2022-09-16T13:56:47.897Z,816.90
2022-09-16T13:59:38.218Z,807.95
2022-09-16T14:02:42.606Z,823.00
2022-09-16T14:05:43.072Z,847.00
2022-09-16T14:08:18.507Z,859.08
2022-09-16T14:10:48.292Z,839.78
2022-09-16T14:13:21.052Z,848.42
2022-09-16T14:15:54.338Z,829.03
2022-09-16T14:18:24.487Z,825.28
2022-09-16T14:21:01.406Z,805.33
2022-09-16T14:23:29.652Z,836.88
2022-09-16T14:25:56.381Z,839.67
2022-09-16T14:28:27.922Z,800.33
2022-09-16T14:30:57.261Z,782.35
2022-09-16T14:33:56.469Z,755.53
2022-09-16T14:36:27.104Z,750.90
2022-09-16T14:39:03.032Z,749.45
2022-09-16T14:42:02.738Z,740.70
2022-09-16T14:44:47.207Z,707.47
2022-09-16T14:47:49.685Z,663.40
2022-09-16T14:50:30.478Z,646.95
2022-09-16T14:52:59.518Z,599.13
2022-09-16T14:55:33.681Z,608.60
2022-09-16T14:58:00.747Z,551.97
2022-09-16T15:00:58.994Z,537.38
2022-09-16T15:03:30.145Z,489.70
2022-09-16T15:06:00.937Z,489.58
2022-09-16T15:08:42.569Z,498.50
2022-09-16T15:11:36.238Z,484.95
2022-09-16T15:14:09.194Z,477.65
2022-09-16T15:16:45.903Z,464.45
2022-09-16T15:19:28.753Z,480.20
2022-09-16T15:21:57.702Z,424.30
2022-09-16T15:24:28.852Z,376.58
2022-09-16T15:26:56.148Z,371.30
2022-09-16T15:29:22.675Z,367.77
2022-09-16T15:31:50.845Z,379.60
2022-09-16T15:34:23.348Z,396.83
2022-09-16T15:37:00.008Z,390.75
2022-09-16T15:39:37.662Z,284.63
2022-09-16T15:42:10.521Z,263.63
2022-09-16T15:44:43.230Z,261.95
2022-09-16T15:47:21.854Z,254.00
2022-09-16T15:50:05.350Z,271.77
2022-09-16T15:52:58.186Z,276.13
2022-09-16T15:55:49.727Z,284.02
2022-09-16T15:58:22.731Z,330.17
2022-09-16T16:01:04.519Z,339.42
2022-09-16T16:03:44.521Z,351.83
2022-09-16T16:06:12.548Z,348.63
2022-09-16T16:08:52.199Z,362.83
2022-09-16T16:11:25.619Z,380.00
2022-09-16T16:13:52.490Z,357.00
2022-09-16T16:16:22.639Z,353.90
2022-09-16T16:18:49.216Z,351.48
2022-09-16T16:21:17.141Z,360.98
2022-09-16T16:23:44.074Z,361.73
2022-09-16T16:26:14.098Z,356.80
2022-09-16T16:28:40.835Z,364.58
2022-09-16T16:31:18.363Z,358.38
2022-09-16T16:33:47.531Z,340.77
2022-09-16T16:36:19.084Z,345.92
2022-09-16T16:38:49.431Z,361.75
2022-09-16T16:41:23.448Z,355.10
2022-09-16T16:43:53.927Z,389.52
2022-09-16T16:46:20.705Z,381.60
2022-09-16T16:48:47.421Z,376.95
2022-09-16T16:51:16.855Z,388.20
2022-09-16T16:53:48.204Z,377.52
2022-09-16T16:56:15.737Z,387.20
2022-09-16T16:58:45.477Z,394.65
2022-09-16T17:01:14.949Z,388.50
2022-09-16T17:03:47.753Z,384.42
2022-09-16T17:06:14.433Z,385.83
2022-09-16T17:08:42.099Z,404.13
2022-09-16T17:11:10.152Z,398.50
2022-09-16T17:13:38.326Z,388.63
2022-09-16T17:16:05.557Z,399.23
2022-09-16T17:18:35.414Z,413.77
2022-09-16T17:21:11.449Z,416.05
2022-09-16T17:23:44.878Z,401.63
2022-09-16T17:26:18.577Z,397.02
2022-09-16T17:28:47.260Z,378.63
2022-09-16T17:31:20.406Z,365.48
2022-09-16T17:33:47.728Z,356.70
2022-09-16T17:36:24.082Z,348.08
2022-09-16T17:38:58.673Z,367.75
2022-09-16T17:41:29.060Z,363.73
2022-09-16T17:43:58.599Z,386.83
2022-09-16T17:46:35.241Z,382.25
2022-09-16T17:49:07.639Z,390.98
2022-09-16T17:51:38.073Z,463.65
2022-09-16T17:54:04.960Z,513.47
2022-09-16T17:56:34.164Z,480.88
2022-09-16T17:59:00.870Z,490.85
2022-09-16T18:01:30.878Z,477.17
2022-09-16T18:04:05.324Z,479.55
2022-09-16T18:06:36.326Z,459.00
2022-09-16T18:09:09.576Z,469.00
2022-09-16T18:11:42.058Z,471.67
2022-09-16T18:14:17.259Z,454.08
2022-09-16T18:16:47.812Z,438.30
2022-09-16T18:19:14.423Z,435.60
2022-09-16T18:21:40.976Z,449.13
2022-09-16T18:24:11.187Z,466.63
2022-09-16T18:26:38.409Z,453.17
2022-09-16T18:29:09.960Z,477.40
2022-09-16T18:31:41.844Z,469.48
2022-09-16T18:34:08.954Z,458.95
2022-09-16T18:36:37.518Z,457.88
2022-09-16T18:39:05.115Z,446.05
2022-09-16T18:41:36.398Z,461.70
2022-09-16T18:44:11.291Z,458.80
2022-09-16T18:46:38.821Z,447.95
2022-09-16T18:49:06.519Z,443.92
2022-09-16T18:51:38.721Z,424.58
2022-09-16T18:54:07.541Z,414.60
2022-09-16T18:56:35.869Z,447.52
2022-09-16T18:59:24.136Z,459.75
2022-09-16T19:01:52.972Z,442.35
2022-09-16T19:04:23.085Z,460.67
2022-09-16T19:06:57.033Z,412.42
2022-09-16T19:09:24.395Z,402.40
2022-09-16T19:11:57.881Z,401.50
2022-09-16T19:14:27.337Z,405.33
2022-09-16T19:16:54.519Z,424.95
2022-09-16T19:19:21.747Z,405.83
2022-09-16T19:21:48.788Z,411.77
2022-09-16T19:24:19.027Z,416.83
2022-09-16T19:26:51.291Z,401.75
2022-09-16T19:29:18.881Z,394.10
2022-09-16T19:31:48.040Z,421.13
2022-09-16T19:34:16.352Z,413.85
2022-09-16T19:36:43.437Z,422.20
2022-09-16T19:39:12.029Z,426.00
2022-09-16T19:41:39.620Z,418.60
2022-09-16T19:44:09.860Z,396.92
2022-09-16T19:46:37.907Z,394.60
2022-09-16T19:49:06.230Z,395.63
2022-09-16T19:51:33.154Z,420.15
2022-09-16T19:54:00.874Z,404.83
2022-09-16T19:56:33.047Z,405.88
2022-09-16T19:59:01.272Z,443.63
2022-09-16T20:01:30.550Z,430.40
2022-09-16T20:03:57.525Z,421.35
2022-09-16T20:06:34.833Z,424.23
2022-09-16T20:09:03.820Z,437.63
2022-09-16T20:11:32.951Z,413.25
2022-09-16T20:14:01.813Z,415.67
2022-09-16T20:16:31.222Z,430.15
2022-09-16T20:18:58.080Z,442.73
2022-09-16T20:21:26.635Z,437.25
2022-09-16T20:23:54.412Z,448.80
2022-09-16T20:26:22.432Z,449.75
2022-09-16T20:28:51.359Z,448.95
2022-09-16T20:31:24.043Z,463.92
2022-09-16T20:33:51.632Z,436.63
2022-09-16T20:36:21.300Z,428.27
2022-09-16T20:38:48.766Z,415.95
2022-09-16T20:41:19.793Z,429.65
2022-09-16T20:43:47.175Z,414.42
2022-09-16T20:46:16.864Z,440.45
2022-09-16T20:48:44.982Z,424.30
2022-09-16T20:51:14.420Z,436.20
2022-09-16T20:53:42.340Z,439.80
2022-09-16T20:56:14.672Z,432.67
2022-09-16T20:58:42.590Z,444.40
2022-09-16T21:01:14.879Z,490.85
2022-09-16T21:03:45.268Z,451.33
2022-09-16T21:06:14.594Z,451.60
2022-09-16T21:08:43.184Z,446.23
2022-09-16T21:11:15.503Z,438.50
2022-09-16T21:13:44.448Z,431.27
2022-09-16T21:16:14.669Z,461.45
2022-09-16T21:18:42.373Z,441.58
2022-09-16T21:21:13.444Z,432.92
2022-09-16T21:23:40.993Z,417.40
2022-09-16T21:26:13.562Z,431.20
2022-09-16T21:28:41.193Z,402.87
2022-09-16T21:31:13.802Z,397.90
2022-09-16T21:33:42.439Z,405.98
2022-09-16T21:36:14.147Z,400.17
2022-09-16T21:38:41.650Z,413.92
2022-09-16T21:41:14.708Z,414.25
2022-09-16T21:43:44.032Z,401.03
2022-09-16T21:46:13.133Z,390.75
2022-09-16T21:48:40.447Z,387.05
2022-09-16T21:51:10.240Z,386.58
2022-09-16T21:53:37.647Z,396.10
2022-09-16T21:56:06.099Z,394.52
2022-09-16T21:58:33.470Z,354.17
2022-09-16T22:01:09.641Z,344.30
2022-09-16T22:03:36.943Z,325.00
2022-09-16T22:06:04.911Z,321.13
2022-09-16T22:08:31.765Z,333.80
2022-09-16T22:11:07.719Z,326.40
2022-09-16T22:13:35.173Z,345.33
2022-09-16T22:16:02.226Z,344.98
2022-09-16T22:18:30.282Z,354.92
2022-09-16T22:21:03.938Z,353.15
2022-09-16T22:23:30.504Z,358.75
2022-09-16T22:25:57.005Z,362.53
2022-09-16T22:28:23.672Z,350.48
2022-09-16T22:30:50.253Z,353.23
2022-09-16T22:33:16.863Z,363.08
2022-09-16T22:35:46.549Z,365.02
2022-09-16T22:38:13.209Z,367.75
2022-09-16T22:40:39.779Z,371.92
2022-09-16T22:43:06.640Z,383.73
2022-09-16T22:45:33.226Z,392.58
2022-09-16T22:47:59.739Z,391.40
2022-09-16T22:50:26.499Z,389.40
2022-09-16T22:52:53.056Z,389.42
2022-09-16T22:55:19.746Z,377.90
2022-09-16T22:57:46.274Z,379.33
2022-09-16T23:00:13.377Z,373.17
2022-09-16T23:02:40.058Z,360.30
2022-09-16T23:05:07.404Z,362.83
2022-09-16T23:07:34.193Z,349.20
2022-09-16T23:10:00.745Z,360.80
2022-09-16T23:12:28.465Z,365.95
2022-09-16T23:14:55.060Z,377.42
2022-09-16T23:17:21.953Z,391.77
2022-09-16T23:19:48.543Z,407.63
2022-09-16T23:22:15.276Z,391.10
2022-09-16T23:24:41.975Z,372.20
2022-09-16T23:27:08.534Z,376.63
2022-09-16T23:29:35.102Z,385.15
2022-09-16T23:32:03.255Z,379.15
2022-09-16T23:34:29.921Z,382.90
2022-09-16T23:36:56.521Z,386.13
2022-09-16T23:39:23.115Z,388.77
2022-09-16T23:41:50.258Z,373.42
2022-09-16T23:44:17.240Z,390.33
2022-09-16T23:46:44.703Z,384.83
2022-09-16T23:49:11.494Z,390.33
2022-09-16T23:51:38.477Z,394.08
2022-09-16T23:54:05.117Z,401.40
2022-09-16T23:56:32.714Z,381.80
2022-09-16T23:59:00.827Z,389.67
